Time;durP1;ratioP1;P1;durP2;ratioP2;P2;SDS_P1;SDS_P2;PMS_P1;PMS_P2;Temp;Humidity;BMP_temperature;BMP_pressure;BME280_temperature;BME280_humidity;BME280_pressure;Samples;Min_cycle;Max_cycle;Signal;HPM_P1;HPM_P2
2021/07/02 15:04:33;;;;;;;;;32.00;26.25;;;;;26.98;49.52;101256.13;5112011;27;45911;-43
2021/07/02 15:45:18;;;;;;;;;17.75;14.00;;;;;30.03;37.91;101213.66;5073401;28;45554;-47
2021/07/02 15:47:44;;;;;;;;;14.50;13.25;;;;;29.96;39.59;101220.66;5056135;28;45311;-48
2021/07/02 15:50:09;;;;;;;;;19.00;17.25;;;;;30.07;40.60;101215.09;5056799;28;45777;-53
2021/07/02 15:52:35;;;;;;;;;14.00;14.00;;;;;30.67;37.46;101216.97;5055999;28;45245;-54
2021/07/02 15:55:00;;;;;;;;;17.25;13.75;;;;;31.76;36.40;101221.28;5055009;28;64401;-54
2021/07/02 15:57:26;;;;;;;;;21.25;20.50;;;;;32.80;38.07;101217.69;5055771;28;45236;-51
2021/07/02 15:59:51;;;;;;;;;15.25;12.50;;;;;33.74;36.51;101211.22;5056095;28;45284;-50
2021/07/02 16:02:17;;;;;;;;;21.50;20.25;;;;;34.11;35.32;101207.69;5055524;28;53868;-46
2021/07/02 16:04:42;;;;;;;;;17.50;17.50;;;;;34.46;34.66;101214.25;5055845;28;46325;-54
2021/07/02 16:07:07;;;;;;;;;20.50;16.50;;;;;34.03;34.53;101205.06;5054923;28;65510;-55
2021/07/02 16:09:33;;;;;;;;;17.50;13.75;;;;;32.95;33.22;101199.78;5055667;28;45684;-56
2021/07/02 16:11:59;;;;;;;;;13.25;13.00;;;;;31.90;33.87;101205.47;5043159;28;45264;-56
2021/07/02 16:14:24;;;;;;;;;16.75;15.25;;;;;31.27;36.54;101198.88;5055381;28;45324;-49
2021/07/02 16:16:50;;;;;;;;;16.50;14.50;;;;;31.96;36.25;101194.88;5055647;28;45434;-52
2021/07/02 16:19:15;;;;;;;;;16.75;15.50;;;;;33.59;35.27;101186.06;5055845;28;45410;-61
2021/07/02 16:21:40;;;;;;;;;12.75;12.00;;;;;35.51;31.98;101188.69;5036995;28;48965;-67
2021/07/02 16:24:06;;;;;;;;;14.50;13.00;;;;;37.99;29.00;101174.66;5069675;28;48481;-60
2021/07/02 16:26:31;;;;;;;;;10.75;10.00;;;;;40.46;28.37;101181.88;5054622;28;45424;-63
2021/07/02 16:28:57;;;;;;;;;14.00;12.50;;;;;42.32;26.58;101164.22;5054562;28;46766;-71
2021/07/02 16:31:22;;;;;;;;;17.25;14.50;;;;;43.82;24.36;101164.72;5050595;28;45273;-61
2021/07/02 16:33:48;;;;;;;;;16.25;15.75;;;;;44.95;25.13;101159.56;5053922;28;45575;-62
2021/07/02 16:36:15;;;;;;;;;12.50;12.50;;;;;43.40;23.95;101159.69;5054696;28;45465;-61
2021/07/02 16:38:44;;;;;;;;;14.00;13.00;;;;;41.42;24.26;101153.66;5054571;28;45474;-62
2021/07/02 16:41:11;;;;;;;;;13.25;12.25;;;;;39.15;24.53;101157.53;5051814;28;45522;-62
2021/07/02 16:43:36;;;;;;;;;14.75;14.75;;;;;37.29;27.96;101156.34;5060476;28;46683;-61
2021/07/02 16:46:02;;;;;;;;;14.50;12.50;;;;;35.81;28.06;101152.28;5074550;28;45359;-62
2021/07/02 16:48:27;;;;;;;;;16.00;14.25;;;;;34.67;29.68;101148.69;5074742;28;45312;-63
2021/07/02 16:50:52;;;;;;;;;18.00;14.50;;;;;33.76;30.90;101136.38;5073771;28;64132;-63
2021/07/02 16:53:20;;;;;;;;;13.25;11.75;;;;;33.23;31.64;101137.31;5060489;28;46278;-65
2021/07/02 16:55:45;;;;;;;;;12.75;11.50;;;;;33.65;31.37;101139.53;5066170;28;45239;-63
2021/07/02 16:58:11;;;;;;;;;13.50;11.75;;;;;34.65;30.78;101148.03;5062406;28;45225;-64
2021/07/02 17:00:37;;;;;;;;;11.00;10.00;;;;;34.21;32.45;101137.25;5061386;28;64152;-70
2021/07/02 17:03:03;;;;;;;;;11.00;11.00;;;;;33.37;31.17;101130.34;5052282;28;45564;-61
2021/07/02 17:05:29;;;;;;;;;10.25;10.00;;;;;32.69;31.14;101131.94;5055658;28;67164;-68
2021/07/02 17:07:55;;;;;;;;;11.25;11.25;;;;;32.18;31.62;101131.44;5061526;28;45458;-60
2021/07/02 17:10:20;;;;;;;;;10.50;9.00;;;;;31.93;31.86;101122.63;5073817;28;45581;-64
2021/07/02 17:12:45;;;;;;;;;11.25;11.25;;;;;32.02;32.71;101128.81;5040060;28;47155;-61
2021/07/02 17:15:11;;;;;;;;;14.00;12.75;;;;;33.19;30.83;101123.38;5053461;28;57027;-61
2021/07/02 17:17:36;;;;;;;;;11.25;11.25;;;;;34.12;30.91;101131.13;5060523;28;45729;-61
2021/07/02 17:20:03;;;;;;;;;9.00;9.00;;;;;34.77;29.76;101124.06;5061191;28;45480;-61
2021/07/02 17:22:28;;;;;;;;;12.25;12.25;;;;;34.87;29.67;101134.59;5060403;28;45432;-60
2021/07/02 17:24:54;;;;;;;;;9.75;9.75;;;;;34.50;28.97;101133.72;5061399;28;53477;-64
2021/07/02 17:27:20;;;;;;;;;13.50;10.50;;;;;33.94;29.30;101121.75;5061475;28;45423;-62
2021/07/02 17:29:45;;;;;;;;;10.00;10.00;;;;;33.28;30.20;101124.16;5063504;28;45271;-61
2021/07/02 17:32:11;;;;;;;;;12.00;10.75;;;;;32.56;30.82;101120.91;5075367;28;45240;-61
2021/07/02 17:34:36;;;;;;;;;11.00;10.75;;;;;31.98;31.47;101114.88;5061592;28;45209;-61
2021/07/02 17:37:02;;;;;;;;;13.25;13.25;;;;;31.52;31.62;101121.81;5061672;28;45253;-67
2021/07/02 17:39:28;;;;;;;;;11.25;11.25;;;;;31.14;32.30;101121.47;5054631;28;45559;-67
2021/07/02 17:41:53;;;;;;;;;12.25;11.00;;;;;30.81;32.73;101120.56;5060768;28;47298;-64
2021/07/02 17:44:18;;;;;;;;;14.75;10.75;;;;;30.52;33.41;101126.31;5046940;28;45489;-67
2021/07/02 17:46:44;;;;;;;;;12.25;12.00;;;;;30.32;33.61;101118.69;5062241;28;45295;-65
2021/07/02 17:49:09;;;;;;;;;12.00;12.00;;;;;30.15;34.39;101128.50;5061140;28;45323;-67
2021/07/02 17:51:35;;;;;;;;;10.00;8.00;;;;;29.99;34.63;101121.19;5060710;28;59430;-66
2021/07/02 17:54:00;;;;;;;;;11.75;11.75;;;;;29.80;35.48;101116.88;5060305;28;55819;-65
2021/07/02 17:56:26;;;;;;;;;9.50;8.75;;;;;29.68;35.53;101124.34;5060381;28;53046;-65
2021/07/02 17:58:51;;;;;;;;;15.25;13.75;;;;;29.56;35.52;101135.47;5033009;28;45700;-68
2021/07/02 18:01:17;;;;;;;;;13.00;11.25;;;;;29.42;36.06;101128.78;5059248;28;47300;-69
2021/07/02 18:03:43;;;;;;;;;13.75;11.25;;;;;29.29;36.05;101117.66;5060844;28;45360;-68
2021/07/02 18:06:08;;;;;;;;;13.75;12.50;;;;;29.24;36.80;101120.78;5060850;28;45427;-65
2021/07/02 18:08:35;;;;;;;;;13.00;12.00;;;;;29.18;36.74;101121.38;5059427;28;45339;-65
2021/07/02 18:11:01;;;;;;;;;11.75;11.50;;;;;29.09;36.72;101119.63;5058140;28;46105;-65
2021/07/02 18:13:27;;;;;;;;;11.00;11.00;;;;;28.97;36.51;101115.50;5059092;28;45235;-63
2021/07/02 18:15:52;;;;;;;;;14.25;11.00;;;;;28.89;37.33;101128.81;5058463;28;57981;-63
2021/07/02 18:18:17;;;;;;;;;13.75;13.50;;;;;28.84;37.85;101126.56;5059183;28;45395;-63
2021/07/02 18:20:43;;;;;;;;;12.25;12.25;;;;;28.77;37.34;101120.94;5059567;28;59146;-63
2021/07/02 18:23:08;;;;;;;;;15.75;13.25;;;;;28.70;37.23;101117.22;5060723;28;45329;-63
2021/07/02 18:25:34;;;;;;;;;10.75;9.75;;;;;28.66;37.13;101115.81;5059984;28;45257;-63
2021/07/02 18:28:00;;;;;;;;;14.00;11.50;;;;;28.66;37.17;101120.34;5039617;28;45415;-63
2021/07/02 18:30:25;;;;;;;;;11.50;10.50;;;;;28.68;37.71;101115.69;5054707;28;46183;-65
2021/07/02 18:32:50;;;;;;;;;15.50;14.75;;;;;28.66;38.53;101121.19;5050900;28;67892;-64
2021/07/02 18:35:16;;;;;;;;;18.50;14.50;;;;;28.61;37.71;101118.09;5060133;28;55606;-65
2021/07/02 18:37:41;;;;;;;;;11.25;10.25;;;;;28.49;37.80;101111.28;5039255;28;45562;-58
2021/07/02 18:40:08;;;;;;;;;10.50;9.50;;;;;28.39;37.34;101114.00;5037182;28;46332;-57
2021/07/02 18:42:33;;;;;;;;;11.50;10.75;;;;;28.30;37.69;101119.41;5045803;28;45750;-66
2021/07/02 18:44:59;;;;;;;;;14.50;12.50;;;;;28.17;38.27;101125.88;5058756;28;45279;-61
2021/07/02 18:47:24;;;;;;;;;12.25;9.50;;;;;28.04;38.17;101113.84;5059666;28;61648;-61
2021/07/02 18:49:49;;;;;;;;;14.25;10.75;;;;;27.88;37.95;101114.47;5060220;28;46805;-60
2021/07/02 18:52:15;;;;;;;;;11.25;9.00;;;;;27.79;38.04;101115.31;5059839;28;63292;-60
2021/07/02 18:54:40;;;;;;;;;13.50;10.75;;;;;27.66;38.19;101109.44;5051200;28;45340;-65
2021/07/02 18:57:06;;;;;;;;;12.75;12.75;;;;;27.57;38.54;101105.75;5053118;28;45249;-64
2021/07/02 18:59:31;;;;;;;;;14.25;13.00;;;;;27.54;38.83;101111.41;5059884;28;45325;-64
2021/07/02 19:01:56;;;;;;;;;15.50;12.50;;;;;27.49;38.65;101116.31;5059179;28;64022;-65
2021/07/02 19:04:22;;;;;;;;;14.25;12.25;;;;;27.43;38.94;101119.53;5058979;28;56957;-65
2021/07/02 19:06:48;;;;;;;;;10.75;10.75;;;;;27.41;39.15;101118.84;5060219;28;45606;-61
2021/07/02 19:09:14;;;;;;;;;13.00;12.25;;;;;27.39;39.36;101116.31;5058590;28;45498;-64
2021/07/02 19:11:39;;;;;;;;;15.00;13.25;;;;;27.36;38.98;101108.59;5049471;28;45392;-62
2021/07/02 19:14:05;;;;;;;;;13.50;13.50;;;;;27.28;39.24;101106.66;5056585;28;45274;-65
2021/07/02 19:16:35;;;;;;;;;14.00;13.75;;;;;27.25;39.62;101106.09;5059210;28;66825;-66
2021/07/02 19:19:00;;;;;;;;;12.00;11.50;;;;;27.15;39.79;101107.91;5059066;28;47297;-61
2021/07/02 19:21:27;;;;;;;;;14.25;13.25;;;;;27.08;39.81;101109.47;5059704;28;52642;-64
2021/07/02 19:23:52;;;;;;;;;13.00;12.50;;;;;27.01;40.18;101102.97;5058395;28;45269;-65
2021/07/02 19:26:18;;;;;;;;;15.25;12.75;;;;;26.97;40.09;101108.56;5059144;28;61423;-64
2021/07/02 19:28:43;;;;;;;;;17.00;14.25;;;;;26.95;40.04;101115.88;5059387;28;58142;-61
2021/07/02 19:31:09;;;;;;;;;18.25;15.75;;;;;26.91;42.05;101106.47;5048062;28;61816;-68
2021/07/02 19:33:35;;;;;;;;;17.25;13.25;;;;;26.92;43.63;101109.97;5057275;28;45358;-62
2021/07/02 19:36:01;;;;;;;;;17.75;16.25;;;;;26.93;43.35;101109.81;5059073;28;63018;-66
2021/07/02 19:38:27;;;;;;;;;17.00;15.50;;;;;26.92;42.64;101105.47;5059322;28;47274;-68
2021/07/02 19:40:52;;;;;;;;;18.25;17.25;;;;;26.92;43.77;101110.81;5063963;28;62974;-67
2021/07/02 19:43:17;;;;;;;;;16.50;15.50;;;;;26.91;43.38;101114.47;5061168;28;45322;-68
2021/07/02 19:45:43;;;;;;;;;16.75;15.25;;;;;26.90;43.35;101111.94;5059014;28;62098;-75
2021/07/02 19:48:08;;;;;;;;;15.00;13.50;;;;;26.86;43.56;101106.03;5072882;28;60851;-75
2021/07/02 19:50:34;;;;;;;;;16.50;15.75;;;;;26.85;43.06;101114.19;5059003;28;68902;-77
2021/07/02 19:52:59;;;;;;;;;18.00;15.25;;;;;26.82;44.46;101114.44;5043452;28;45584;-76
2021/07/02 19:55:25;;;;;;;;;15.00;13.50;;;;;26.82;43.00;101114.44;5059126;28;45533;-73
2021/07/02 19:57:50;;;;;;;;;20.50;16.00;;;;;26.81;44.14;101107.41;5059005;28;45327;-68
2021/07/02 20:00:16;;;;;;;;;15.75;14.50;;;;;26.81;44.52;101110.94;5059124;28;55725;-73
2021/07/02 20:02:41;;;;;;;;;18.00;16.25;;;;;26.78;44.68;101103.19;5059471;28;45235;-72
2021/07/02 20:05:09;;;;;;;;;18.25;15.00;;;;;26.77;44.70;101112.19;5059487;28;45547;-73
2021/07/02 20:07:35;;;;;;;;;15.25;15.00;;;;;26.76;44.03;101104.31;5059346;28;46224;-70
2021/07/02 20:10:01;;;;;;;;;15.75;15.00;;;;;26.73;44.32;101101.94;5058968;28;45373;-72
2021/07/02 20:12:27;;;;;;;;;37.50;32.00;;;;;26.70;44.64;101105.72;5045639;28;45339;-70
2021/07/02 20:14:52;;;;;;;;;18.75;17.00;;;;;26.65;44.53;101105.31;5036870;28;57917;-69
2021/07/02 20:17:17;;;;;;;;;16.50;15.50;;;;;26.62;44.82;101102.88;5055161;28;63951;-67
2021/07/02 20:19:43;;;;;;;;;19.25;17.25;;;;;26.59;44.22;101108.50;5058431;28;66067;-71
2021/07/02 20:22:08;;;;;;;;;18.75;17.25;;;;;26.58;44.43;101101.47;5040981;28;57368;-74
2021/07/02 20:24:34;;;;;;;;;22.00;18.50;;;;;26.55;44.35;101101.75;5058978;28;45489;-73
2021/07/02 20:26:59;;;;;;;;;35.25;29.50;;;;;26.52;44.44;101102.88;5058340;28;64330;-76
2021/07/02 20:29:25;;;;;;;;;17.75;16.00;;;;;26.48;43.72;101095.28;5058724;28;60257;-72
2021/07/02 20:31:51;;;;;;;;;24.50;23.00;;;;;26.45;44.35;101099.09;5056675;28;45521;-72
2021/07/02 20:34:17;;;;;;;;;35.75;30.75;;;;;26.41;44.50;101094.97;5062105;28;45473;-72
2021/07/02 20:36:42;;;;;;;;;55.25;44.25;;;;;26.40;44.21;101109.28;5061999;28;46931;-72
2021/07/02 20:39:08;;;;;;;;;54.00;41.25;;;;;26.37;44.53;101112.22;5057498;28;65324;-73
2021/07/02 20:41:34;;;;;;;;;50.00;38.50;;;;;26.33;43.94;101106.28;5041635;28;45388;-71
2021/07/02 20:43:59;;;;;;;;;35.00;31.00;;;;;26.32;43.76;101107.28;5062261;28;45191;-72
2021/07/02 20:46:25;;;;;;;;;28.50;25.50;;;;;26.32;43.72;101107.28;5057357;28;46534;-73
2021/07/02 20:48:50;;;;;;;;;18.25;18.00;;;;;26.30;43.25;101103.91;5060472;28;54774;-72
2021/07/02 20:51:15;;;;;;;;;21.75;18.75;;;;;26.27;43.61;101106.00;5061628;28;57741;-72
2021/07/02 20:53:41;;;;;;;;;17.25;15.00;;;;;26.25;43.28;101110.63;5061721;28;54875;-72
2021/07/02 20:56:06;;;;;;;;;20.75;16.00;;;;;26.22;44.00;101105.53;5061742;28;46083;-72
2021/07/02 20:58:32;;;;;;;;;16.25;15.75;;;;;26.20;44.00;101102.16;5062237;28;45311;-72
2021/07/02 21:00:57;;;;;;;;;21.50;17.25;;;;;26.17;44.12;101097.94;5061032;28;51687;-71
2021/07/02 21:03:23;;;;;;;;;21.25;18.50;;;;;26.12;44.10;101102.00;5046678;28;64424;-71
2021/07/02 21:05:50;;;;;;;;;18.00;16.00;;;;;26.08;44.31;101102.28;5050132;28;46451;-71
2021/07/02 21:08:16;;;;;;;;;17.50;13.25;;;;;26.03;43.86;101093.84;5050939;28;45296;-59
2021/07/02 21:10:43;;;;;;;;;21.75;20.50;;;;;25.96;43.69;101099.81;5043840;28;46644;-64
2021/07/02 21:13:09;;;;;;;;;14.75;13.00;;;;;25.91;44.14;101099.38;5052839;28;45461;-62
2021/07/02 21:15:35;;;;;;;;;15.25;13.25;;;;;25.81;44.02;101087.81;5054862;28;46593;-59
2021/07/02 21:18:00;;;;;;;;;15.25;11.25;;;;;25.75;44.13;101087.38;5049963;28;51768;-60
2021/07/02 21:20:25;;;;;;;;;13.25;12.50;;;;;25.70;44.48;101091.41;5045233;28;54194;-61
2021/07/02 21:22:51;;;;;;;;;15.00;14.75;;;;;25.59;44.89;101086.13;5040886;28;62922;-61
2021/07/02 21:25:16;;;;;;;;;14.75;13.25;;;;;25.52;44.75;101092.94;5040392;28;55333;-61
2021/07/02 21:27:41;;;;;;;;;16.25;15.25;;;;;25.46;45.03;101096.97;5040989;28;54122;-61
2021/07/02 21:30:07;;;;;;;;;15.75;14.00;;;;;25.44;45.27;101088.28;5041478;28;45857;-61
2021/07/02 21:32:33;;;;;;;;;17.75;13.00;;;;;25.43;45.03;101086.59;5040534;28;45537;-60
2021/07/02 21:34:58;;;;;;;;;11.50;11.50;;;;;25.41;45.47;101085.84;5041099;28;56021;-61
2021/07/02 21:37:23;;;;;;;;;13.75;12.25;;;;;25.38;45.09;101078.13;5041537;28;45263;-61
2021/07/02 21:39:49;;;;;;;;;14.50;14.00;;;;;25.33;45.67;101075.03;5028850;28;48863;-61
2021/07/02 21:42:16;;;;;;;;;14.50;10.25;;;;;25.34;45.69;101079.38;5051221;28;63881;-63
2021/07/02 21:44:42;;;;;;;;;20.25;13.75;;;;;25.33;45.65;101085.66;5054213;28;46640;-63
2021/07/02 21:47:08;;;;;;;;;13.50;12.00;;;;;25.31;45.88;101091.13;5050570;28;45407;-64
2021/07/02 21:49:33;;;;;;;;;15.75;14.25;;;;;25.30;45.35;101080.59;5043240;28;45240;-64
2021/07/02 21:51:59;;;;;;;;;17.25;14.00;;;;;25.30;45.32;101085.94;5051265;28;45236;-66
2021/07/02 21:54:24;;;;;;;;;13.50;13.00;;;;;25.31;46.07;101083.13;5054234;28;46138;-66
2021/07/02 21:56:57;;;;;;;;;15.00;15.00;;;;;25.30;45.66;101092.09;5048665;28;45426;-66
2021/07/02 21:59:23;;;;;;;;;14.50;14.00;;;;;25.29;45.44;101092.22;5047067;28;45438;-64
2021/07/02 22:01:48;;;;;;;;;15.25;13.25;;;;;25.28;45.89;101087.88;5052071;28;46017;-65
2021/07/02 22:04:14;;;;;;;;;15.00;14.50;;;;;25.26;46.12;101090.66;5047290;28;46582;-64
2021/07/02 22:06:39;;;;;;;;;15.75;13.75;;;;;25.27;45.76;101089.69;5049499;28;61558;-65
2021/07/02 22:09:04;;;;;;;;;16.50;13.00;;;;;25.28;45.71;101085.22;5052532;28;63469;-64
2021/07/02 22:11:30;;;;;;;;;16.75;14.00;;;;;25.26;45.62;101089.81;5042180;28;61820;-63
2021/07/02 22:13:55;;;;;;;;;14.25;11.25;;;;;25.25;45.83;101082.81;5053658;28;62670;-63
2021/07/02 22:16:20;;;;;;;;;18.00;16.00;;;;;25.23;46.34;101087.41;5023210;28;45299;-63
2021/07/02 22:18:46;;;;;;;;;14.00;11.75;;;;;25.22;46.28;101085.72;5040758;28;45841;-63
2021/07/02 22:21:11;;;;;;;;;11.50;11.50;;;;;25.22;45.86;101085.72;5040225;28;64649;-64
2021/07/02 22:23:37;;;;;;;;;14.75;12.25;;;;;25.20;46.37;101085.00;5040241;28;46390;-64
2021/07/02 22:26:02;;;;;;;;;15.00;14.25;;;;;25.18;46.16;101082.47;5015057;28;45361;-61
2021/07/02 22:28:27;;;;;;;;;17.25;14.00;;;;;25.10;46.49;101074.28;5057513;28;61841;-60
2021/07/02 22:30:53;;;;;;;;;17.00;13.50;;;;;25.06;46.62;101071.06;5040836;28;45339;-60
2021/07/02 22:33:18;;;;;;;;;15.00;15.00;;;;;25.02;46.26;101074.06;5053332;28;62168;-59
2021/07/02 22:35:44;;;;;;;;;15.50;13.00;;;;;24.96;46.34;101072.72;5021913;28;65354;-59
2021/07/02 22:38:09;;;;;;;;;15.50;12.25;;;;;24.91;46.50;101076.75;5054112;28;45924;-64
2021/07/02 22:40:34;;;;;;;;;15.50;14.50;;;;;24.87;47.06;101078.81;5051759;28;54578;-65
2021/07/02 22:43:00;;;;;;;;;12.75;8.75;;;;;24.85;46.89;101078.09;5044675;28;46071;-64
2021/07/02 22:45:25;;;;;;;;;11.00;11.00;;;;;24.81;46.80;101068.66;5040167;28;45233;-65
2021/07/02 22:47:51;;;;;;;;;14.25;13.00;;;;;24.77;47.47;101083.19;5040228;28;45275;-63
2021/07/02 22:50:16;;;;;;;;;19.25;15.50;;;;;24.71;47.43;101073.91;5040386;28;45266;-65
2021/07/02 22:52:41;;;;;;;;;15.75;14.00;;;;;24.67;47.36;101072.47;5039748;28;46329;-65
2021/07/02 22:55:07;;;;;;;;;15.00;13.50;;;;;24.67;47.07;101079.59;5038922;28;66951;-64
2021/07/02 22:57:33;;;;;;;;;15.00;13.50;;;;;24.64;47.89;101071.88;5040275;28;45236;-65
2021/07/02 22:59:59;;;;;;;;;12.25;12.25;;;;;24.62;47.38;101082.63;5049168;28;45666;-64
2021/07/02 23:02:25;;;;;;;;;18.75;14.25;;;;;24.58;47.47;101071.38;5046972;28;45573;-65
2021/07/02 23:04:50;;;;;;;;;12.00;12.00;;;;;24.56;48.02;101073.34;5050632;28;53427;-64
2021/07/02 23:07:16;;;;;;;;;15.50;11.25;;;;;24.55;47.88;101076.13;5041971;28;57314;-64
2021/07/02 23:09:41;;;;;;;;;10.75;10.75;;;;;24.50;47.71;101079.16;5050658;28;45318;-64
2021/07/02 23:12:07;;;;;;;;;16.00;12.75;;;;;24.46;48.15;101075.06;5053963;28;46395;-65
2021/07/02 23:14:32;;;;;;;;;11.75;11.50;;;;;24.44;47.84;101070.84;5040120;28;45583;-64
2021/07/02 23:16:58;;;;;;;;;13.75;12.50;;;;;24.42;48.13;101062.97;5039443;28;58827;-64
2021/07/02 23:19:23;;;;;;;;;16.50;14.00;;;;;24.39;48.37;101065.88;5039435;28;55201;-64
2021/07/02 23:21:49;;;;;;;;;14.75;14.75;;;;;24.37;48.14;101057.19;5039728;28;46216;-65
2021/07/02 23:24:14;;;;;;;;;16.25;13.75;;;;;24.37;48.45;101059.84;5039191;28;52888;-64
2021/07/02 23:26:40;;;;;;;;;14.50;13.00;;;;;24.38;48.58;101061.53;5021752;28;50435;-64
2021/07/02 23:29:05;;;;;;;;;15.50;12.50;;;;;24.37;48.25;101059.84;5055262;28;45634;-60
2021/07/02 23:31:30;;;;;;;;;14.75;13.75;;;;;24.37;48.61;101059.00;5063707;28;64984;-60
2021/07/02 23:33:56;;;;;;;;;16.75;12.25;;;;;24.37;48.74;101053.69;5047430;28;45213;-59
2021/07/02 23:36:22;;;;;;;;;19.50;15.00;;;;;24.35;48.60;101052.97;5045757;28;45298;-59
2021/07/02 23:38:48;;;;;;;;;13.75;12.75;;;;;24.32;49.16;101046.09;5025191;28;45588;-59
2021/07/02 23:41:13;;;;;;;;;15.50;13.50;;;;;24.34;48.98;101052.13;5051828;28;64297;-59
2021/07/02 23:43:38;;;;;;;;;16.00;16.00;;;;;24.35;48.74;101051.16;5047938;28;45461;-59
2021/07/02 23:46:04;;;;;;;;;15.75;13.50;;;;;24.35;48.97;101047.66;5046294;28;45248;-59
2021/07/02 23:48:29;;;;;;;;;15.25;14.75;;;;;24.33;49.25;101049.59;5051433;28;45264;-59
2021/07/02 23:50:55;;;;;;;;;18.50;15.00;;;;;24.30;48.74;101042.72;5038363;28;71280;-59
2021/07/02 23:53:20;;;;;;;;;16.00;15.25;;;;;24.29;49.27;101045.50;5038974;28;59852;-60
2021/07/02 23:55:46;;;;;;;;;14.25;13.00;;;;;24.26;49.10;101052.72;5038986;28;45912;-57
2021/07/02 23:58:11;;;;;;;;;15.75;15.50;;;;;24.24;48.90;101048.50;5039521;28;45316;-57
